Time;durP1;ratioP1;P1;durP2;ratioP2;P2;SDS_P1;SDS_P2;PMS_P1;PMS_P2;Temp;Humidity;BMP_temperature;BMP_pressure;BME280_temperature;BME280_humidity;BME280_pressure;Samples;Min_cycle;Max_cycle;Signal;HPM_P1;HPM_P2
2022/11/02 00:01:13;;;;;;;7.83;5.40;;;;;;;6.54;100.00;101125.81;4950779;28;20039;-85
2022/11/02 00:03:44;;;;;;;7.50;5.40;;;;;;;6.48;100.00;101124.06;4986910;28;20730;-85
2022/11/02 00:06:11;;;;;;;6.13;4.97;;;;;;;6.47;100.00;101119.69;4949664;28;20050;-85
2022/11/02 00:08:42;;;;;;;9.77;5.33;;;;;;;6.53;100.00;101123.19;4932626;29;20238;-85
2022/11/02 00:11:11;;;;;;;10.50;5.40;;;;;;;6.52;100.00;101114.44;4938138;28;20047;-85
2022/11/02 00:13:38;;;;;;;8.53;5.27;;;;;;;6.52;100.00;101121.44;4949113;28;20063;-85
2022/11/02 00:16:11;;;;;;;7.87;5.10;;;;;;;6.44;100.00;101113.53;4952434;28;20066;-85
2022/11/02 00:18:38;;;;;;;10.02;5.78;;;;;;;6.45;100.00;101112.66;4940956;28;20044;-85
2022/11/02 00:21:05;;;;;;;8.37;5.70;;;;;;;6.43;100.00;101104.78;4961893;28;20043;-85
2022/11/02 00:23:32;;;;;;;10.70;4.90;;;;;;;6.37;100.00;101115.25;4935391;28;20050;-85
2022/11/02 00:26:00;;;;;;;10.33;5.80;;;;;;;6.29;100.00;101108.22;4962263;28;20047;-85
2022/11/02 00:28:29;;;;;;;9.63;5.53;;;;;;;6.32;100.00;101101.25;4972384;28;20047;-84
2022/11/02 00:30:56;;;;;;;6.80;5.63;;;;;;;6.28;100.00;101103.84;4953358;28;20031;-84
2022/11/02 00:33:23;;;;;;;7.37;5.73;;;;;;;6.16;100.00;101105.56;4967951;28;20051;-84
2022/11/02 00:35:53;;;;;;;9.43;5.37;;;;;;;6.18;100.00;101103.81;4985979;28;20733;-84
2022/11/02 00:38:20;;;;;;;8.70;5.23;;;;;;;6.14;100.00;101095.94;4942954;29;20032;-84
2022/11/02 00:40:47;;;;;;;8.00;6.03;;;;;;;6.12;100.00;101108.16;4917199;29;20066;-85
2022/11/02 00:43:14;;;;;;;8.87;5.17;;;;;;;6.03;100.00;101105.47;4980188;28;20123;-85
2022/11/02 00:45:41;;;;;;;6.77;5.33;;;;;;;5.97;100.00;101110.69;4947852;28;20051;-84
2022/11/02 00:48:08;;;;;;;8.60;6.10;;;;;;;5.96;100.00;101117.69;4958597;28;20090;-85
2022/11/02 00:50:35;;;;;;;7.23;5.27;;;;;;;5.91;100.00;101115.03;4935424;28;20114;-84
2022/11/02 00:53:02;;;;;;;7.10;5.40;;;;;;;5.85;100.00;101108.84;4950901;28;20497;-84
2022/11/02 00:55:29;;;;;;;8.60;6.23;;;;;;;5.85;100.00;101114.09;4963673;28;20038;-84
2022/11/02 00:57:55;;;;;;;8.57;6.17;;;;;;;5.80;100.00;101105.31;4980258;28;20053;-84
2022/11/02 01:00:22;;;;;;;10.47;6.47;;;;;;;5.93;100.00;101102.81;4959133;28;20071;-85
2022/11/02 01:02:49;;;;;;;10.57;5.93;;;;;;;5.83;100.00;101105.34;4945673;28;20448;-85
2022/11/02 01:05:31;;;;;;;12.27;5.60;;;;;;;5.80;100.00;101108.84;4967208;28;20039;-84
2022/11/02 01:07:59;;;;;;;6.65;4.72;;;;;;;5.77;100.00;101105.31;4952012;28;20047;-85
2022/11/02 01:10:26;;;;;;;6.30;5.57;;;;;;;5.74;100.00;101110.53;4949107;28;20559;-85
2022/11/02 01:12:53;;;;;;;8.27;5.20;;;;;;;5.75;100.00;101093.94;4942104;28;20355;-85
2022/11/02 01:15:20;;;;;;;9.07;5.57;;;;;;;5.72;100.00;101091.28;4974552;28;20039;-84
2022/11/02 01:17:47;;;;;;;9.17;5.93;;;;;;;5.78;100.00;101094.81;4959508;28;20039;-83
2022/11/02 01:20:14;;;;;;;7.13;4.90;;;;;;;5.79;100.00;101095.69;4963283;28;20047;-84
2022/11/02 01:22:40;;;;;;;7.27;4.97;;;;;;;5.81;100.00;101091.34;4950214;28;20042;-83
2022/11/02 01:25:08;;;;;;;8.53;5.47;;;;;;;5.71;100.00;101097.38;4931977;29;20039;-85
2022/11/02 01:27:34;;;;;;;7.20;4.40;;;;;;;5.70;100.00;101111.38;4967090;28;20062;-83
2022/11/02 01:30:03;;;;;;;8.93;5.17;;;;;;;5.62;100.00;101114.81;4944869;28;20511;-84
2022/11/02 01:32:29;;;;;;;8.17;4.63;;;;;;;5.56;100.00;101099.06;4960870;28;20406;-84
2022/11/02 01:34:56;;;;;;;6.80;4.70;;;;;;;5.55;100.00;101112.13;4950415;28;20040;-83
2022/11/02 01:37:23;;;;;;;6.97;4.93;;;;;;;5.52;100.00;101106.88;4934380;28;20039;-84
2022/11/02 01:39:49;;;;;;;6.63;5.07;;;;;;;5.52;100.00;101101.63;4978109;28;20063;-84
2022/11/02 01:42:18;;;;;;;6.43;4.80;;;;;;;5.46;100.00;101105.06;4935110;28;20047;-85
2022/11/02 01:44:45;;;;;;;9.80;5.37;;;;;;;5.45;100.00;101105.94;4967782;28;20036;-84
2022/11/02 01:47:18;;;;;;;8.07;5.27;;;;;;;5.48;100.00;101098.13;4979873;28;20059;-85
2022/11/02 01:49:46;;;;;;;7.47;5.77;;;;;;;5.43;100.00;101101.56;4950400;28;20035;-84
2022/11/02 01:52:19;;;;;;;10.17;5.07;;;;;;;5.50;100.00;101096.38;4960942;28;20054;-85
2022/11/02 01:54:55;;;;;;;7.63;5.80;;;;;;;5.48;100.00;101089.41;4933953;29;20042;-85
2022/11/02 01:57:22;;;;;;;6.87;4.70;;;;;;;5.46;100.00;101085.88;4951087;28;20520;-84
2022/11/02 02:00:05;;;;;;;8.70;5.23;;;;;;;5.51;100.00;101084.16;4951507;28;20046;-84
2022/11/02 02:02:34;;;;;;;8.40;5.17;;;;;;;5.46;100.00;101088.47;4951868;28;20043;-85
2022/11/02 02:05:09;;;;;;;7.20;5.73;;;;;;;5.41;100.00;101085.84;4958906;28;20039;-84
2022/11/02 02:07:37;;;;;;;6.87;4.83;;;;;;;5.40;100.00;101077.97;4952920;28;20051;-84
2022/11/02 02:10:06;;;;;;;6.83;5.03;;;;;;;5.44;100.00;101085.84;4935506;28;20858;-84
2022/11/02 02:12:33;;;;;;;8.20;5.33;;;;;;;5.43;100.00;101083.22;4965387;28;20054;-84
2022/11/02 02:15:00;;;;;;;8.87;5.57;;;;;;;5.37;100.00;101078.81;4927829;29;20099;-84
2022/11/02 02:17:42;;;;;;;6.63;5.33;;;;;;;5.37;100.00;101082.31;4964550;28;20484;-85
2022/11/02 02:20:16;;;;;;;8.77;5.60;;;;;;;5.34;100.00;101081.41;4934516;29;20072;-84
2022/11/02 02:23:30;;;;;;;8.67;5.37;;;;;;;5.33;100.00;101082.28;4937966;29;20047;-85
2022/11/02 02:26:25;;;;;;;6.73;5.30;;;;;;;5.37;100.00;101082.31;4981261;28;20048;-84
2022/11/02 02:28:59;;;;;;;;;;;;;;;5.33;100.00;101077.94;4989217;28;20097;-85
2022/11/02 02:31:39;;;;;;;7.45;5.35;;;;;;;5.28;100.00;101081.38;4970798;28;19926;-85
2022/11/02 02:34:16;;;;;;;7.60;5.27;;;;;;;5.28;100.00;101077.00;4953822;28;20039;-84
2022/11/02 02:36:57;;;;;;;8.17;5.57;;;;;;;5.26;100.00;101073.50;4937094;29;20043;-84
2022/11/02 02:39:35;;;;;;;7.87;5.30;;;;;;;5.27;100.00;101074.38;4984824;28;20110;-84
2022/11/02 02:42:11;;;;;;;7.57;5.47;;;;;;;5.26;100.00;101065.63;4977415;28;20632;-84
2022/11/02 02:44:41;;;;;;;7.80;5.00;;;;;;;5.34;100.00;101063.94;4959649;28;20042;-84
2022/11/02 02:47:12;;;;;;;8.33;6.10;;;;;;;5.30;100.00;101064.81;4975353;28;20034;-85
2022/11/02 02:49:45;;;;;;;7.77;4.97;;;;;;;5.39;100.00;101056.16;4937853;29;20047;-84
2022/11/02 02:52:13;;;;;;;7.20;5.50;;;;;;;5.31;100.00;101056.09;4945700;28;20042;-84
2022/11/02 02:54:41;;;;;;;9.97;5.43;;;;;;;5.29;100.00;101056.91;4965579;28;20039;-85
2022/11/02 02:57:15;;;;;;;10.23;5.93;;;;;;;5.33;100.00;101053.47;4921824;29;20086;-85
2022/11/02 02:59:47;;;;;;;6.38;4.65;;;;;;;5.27;100.00;101062.16;4971019;28;20103;-86
2022/11/02 03:02:20;;;;;;;6.60;4.70;;;;;;;5.20;100.00;101060.34;4967129;28;20124;-86
2022/11/02 03:04:47;;;;;;;8.10;4.70;;;;;;;5.22;100.00;101063.00;4931996;29;20448;-85
2022/11/02 03:07:20;;;;;;;7.47;5.13;;;;;;;5.22;100.00;101060.38;4935798;28;20421;-85
2022/11/02 03:10:25;;;;;;;12.80;8.17;;;;;;;5.27;100.00;101056.03;4948914;28;20051;-85
2022/11/02 03:12:57;;;;;;;;;;;;;;;5.16;100.00;101063.81;4955920;28;20035;-87
2022/11/02 03:15:39;;;;;;;9.97;6.60;;;;;;;5.18;100.00;101063.81;4991169;28;19979;-86
2022/11/02 03:18:17;;;;;;;9.87;6.10;;;;;;;5.18;100.00;101058.59;4951669;28;20440;-87
2022/11/02 03:21:12;;;;;;;9.20;5.33;;;;;;;5.24;100.00;101061.25;4921993;29;20051;-86
2022/11/02 03:23:45;;;;;;;10.10;7.00;;;;;;;5.22;100.00;101060.38;4928481;28;20043;-87
2022/11/02 03:26:17;;;;;;;10.87;5.67;;;;;;;5.25;100.00;101052.53;4943793;28;20110;-86
2022/11/02 03:28:55;;;;;;;8.33;6.17;;;;;;;5.26;100.00;101042.06;4967817;28;20099;-86
2022/11/02 03:31:42;;;;;;;8.17;5.63;;;;;;;5.32;100.00;101049.97;4987262;28;20039;-86
2022/11/02 03:34:19;;;;;;;8.93;5.53;;;;;;;5.32;100.00;101062.19;4953080;28;20071;-86
2022/11/02 03:36:53;;;;;;;7.57;5.37;;;;;;;5.29;100.00;101057.78;4946119;28;20039;-86
2022/11/02 03:39:28;;;;;;;7.37;5.23;;;;;;;5.27;100.00;101061.28;4969393;28;20039;-86
2022/11/02 03:41:55;;;;;;;7.57;5.53;;;;;;;5.29;100.00;101070.00;4950498;29;20047;-86
2022/11/02 03:44:24;;;;;;;9.20;5.77;;;;;;;5.32;100.00;101060.44;4953957;28;20071;-86
2022/11/02 03:46:55;;;;;;;8.83;5.53;;;;;;;5.31;100.00;101057.84;4976259;28;20452;-86
2022/11/02 03:49:22;;;;;;;9.30;5.50;;;;;;;5.33;100.00;101063.94;4953309;29;20107;-85
2022/11/02 03:51:50;;;;;;;8.33;5.53;;;;;;;5.30;100.00;101062.19;4951373;28;20091;-84
2022/11/02 03:54:24;;;;;;;5.97;4.70;;;;;;;5.29;100.00;101062.16;4964393;28;20101;-85
2022/11/02 03:56:54;;;;;;;6.43;5.13;;;;;;;5.21;100.00;101064.75;4952931;28;20097;-85
2022/11/02 03:59:21;;;;;;;5.97;5.00;;;;;;;5.20;100.00;101059.47;4979539;28;20043;-85
2022/11/02 04:01:49;;;;;;;6.37;4.73;;;;;;;5.18;100.00;101069.06;4969746;28;20727;-85
2022/11/02 04:04:16;;;;;;;6.30;4.83;;;;;;;5.20;100.00;101072.56;5028302;23;20050;-82
2022/11/02 04:06:44;;;;;;;7.30;5.20;;;;;;;5.16;100.00;101070.81;4956782;28;20050;-82
2022/11/02 04:09:11;;;;;;;7.93;5.40;;;;;;;5.08;100.00;101071.63;4972256;28;20381;-82
2022/11/02 04:14:38;;;;;;;7.70;5.23;;;;;;;5.10;100.00;101069.00;4957746;28;20146;-84
2022/11/02 04:19:52;;;;;;;7.57;5.20;;;;;;;5.11;100.00;101068.13;4969791;28;20039;-84
2022/11/02 04:25:14;;;;;;;8.07;6.13;;;;;;;5.13;100.00;101057.66;4974899;28;20496;-84
2022/11/02 04:27:41;;;;;;;7.97;5.90;;;;;;;5.09;100.00;101060.28;4972567;28;20506;-84
2022/11/02 04:30:08;;;;;;;6.83;5.93;;;;;;;5.14;100.00;101048.97;4941203;28;20051;-83
2022/11/02 04:35:30;;;;;;;8.10;5.70;;;;;;;4.99;100.00;101049.72;4959675;28;20463;-83
2022/11/02 04:40:42;;;;;;;8.63;5.53;;;;;;;4.97;100.00;101049.72;4959882;28;20096;-84
2022/11/02 04:43:09;;;;;;;8.33;5.67;;;;;;;4.97;100.00;101049.72;4955404;28;20124;-84
2022/11/02 04:45:36;;;;;;;8.30;5.90;;;;;;;4.91;100.00;101044.41;4958539;28;20066;-83
2022/11/02 04:48:07;;;;;;;8.30;5.17;;;;;;;4.91;100.00;101044.41;4954593;28;20046;-83
2022/11/02 04:50:34;;;;;;;7.87;5.47;;;;;;;4.89;100.00;101051.38;4957064;28;20042;-84
2022/11/02 04:53:02;;;;;;;6.33;4.90;;;;;;;4.91;100.00;101054.00;4937506;28;20050;-82
2022/11/02 04:55:29;;;;;;;8.03;5.93;;;;;;;4.91;100.00;101056.63;4942464;28;20491;-81
2022/11/02 04:57:56;;;;;;;8.70;5.80;;;;;;;4.88;100.00;101054.00;4971316;28;20066;-81
2022/11/02 05:00:23;;;;;;;7.87;5.30;;;;;;;4.90;100.00;101052.25;4956956;28;20042;-81
2022/11/02 05:02:50;;;;;;;7.27;5.80;;;;;;;4.91;100.00;101044.41;4950440;28;20616;-82
2022/11/02 05:05:17;;;;;;;8.43;5.87;;;;;;;4.93;100.00;101045.28;4969719;28;20506;-81
2022/11/02 05:07:44;;;;;;;9.73;5.63;;;;;;;5.00;100.00;101054.97;4933244;28;20543;-81
2022/11/02 05:10:11;;;;;;;9.17;6.07;;;;;;;4.97;100.00;101054.94;4952564;28;20093;-82
2022/11/02 05:12:38;;;;;;;10.20;5.20;;;;;;;4.93;100.00;101044.41;4951899;28;20448;-81
2022/11/02 05:15:04;;;;;;;8.93;5.57;;;;;;;4.91;100.00;101047.03;4955912;28;20594;-81
2022/11/02 05:17:31;;;;;;;8.27;5.63;;;;;;;4.92;100.00;101047.91;4934560;29;20544;-81
2022/11/02 05:19:58;;;;;;;10.70;6.27;;;;;;;4.96;100.00;101054.91;4958967;28;20085;-81
2022/11/02 05:22:24;;;;;;;10.83;6.43;;;;;;;4.93;100.00;101054.88;4943333;28;20043;-81
2022/11/02 05:24:51;;;;;;;7.97;5.77;;;;;;;4.91;100.00;101057.50;4937656;28;20051;-82
2022/11/02 05:27:18;;;;;;;8.13;5.57;;;;;;;4.95;100.00;101061.88;4970285;28;20035;-81
2022/11/02 05:29:44;;;;;;;10.13;5.80;;;;;;;4.95;100.00;101054.03;4942746;28;20039;-81
2022/11/02 05:32:11;;;;;;;8.73;5.23;;;;;;;4.93;100.00;101052.28;4970300;28;20066;-81
2022/11/02 05:34:38;;;;;;;8.07;5.00;;;;;;;4.95;100.00;101055.78;4955603;28;20042;-82
2022/11/02 05:37:04;;;;;;;8.37;4.63;;;;;;;4.92;100.00;101047.91;4972303;28;20073;-82
2022/11/02 05:39:34;;;;;;;5.83;4.33;;;;;;;4.90;100.00;101049.63;4961660;28;20070;-82
2022/11/02 05:42:00;;;;;;;8.10;4.47;;;;;;;4.92;100.00;101047.91;4954208;28;20053;-82
2022/11/02 05:44:27;;;;;;;6.43;4.53;;;;;;;4.89;100.00;101054.00;4944599;28;20073;-82
2022/11/02 05:46:54;;;;;;;13.03;5.67;;;;;;;4.96;100.00;101047.97;4947263;28;20043;-82
2022/11/02 05:49:21;;;;;;;7.87;5.43;;;;;;;4.86;100.00;101056.56;4944697;28;20046;-82
2022/11/02 05:51:48;;;;;;;8.13;4.30;;;;;;;4.95;100.00;101050.53;4950772;28;20043;-82
2022/11/02 05:54:14;;;;;;;10.33;4.97;;;;;;;4.84;100.00;101047.81;4976482;28;20093;-81
2022/11/02 05:56:41;;;;;;;6.90;4.30;;;;;;;4.82;100.00;101051.31;4956495;28;20043;-82
2022/11/02 05:59:08;;;;;;;8.27;4.83;;;;;;;4.78;100.00;101056.50;4963055;28;20049;-82
2022/11/02 06:01:35;;;;;;;10.00;5.00;;;;;;;4.87;100.00;101050.47;4957260;28;20792;-82
2022/11/02 06:04:02;;;;;;;7.20;4.40;;;;;;;4.80;100.00;101054.78;4960298;28;20031;-81
2022/11/02 06:06:28;;;;;;;8.70;5.27;;;;;;;4.84;100.00;101053.06;4960421;28;20042;-82
2022/11/02 06:08:55;;;;;;;9.90;5.30;;;;;;;4.83;100.00;101048.69;4957887;28;20035;-81
2022/11/02 06:11:22;;;;;;;6.37;4.97;;;;;;;4.80;100.00;101048.69;4940182;28;20046;-82
2022/11/02 06:14:04;;;;;;;10.30;5.77;;;;;;;4.80;100.00;101054.78;4941776;28;20043;-81
2022/11/02 06:16:31;;;;;;;7.10;5.03;;;;;;;4.80;100.00;101064.38;4939744;28;20108;-82
2022/11/02 06:18:57;;;;;;;10.23;5.47;;;;;;;4.85;100.00;101062.66;4938845;28;20042;-81
2022/11/02 06:21:24;;;;;;;9.07;5.33;;;;;;;4.82;100.00;101057.41;4952130;28;20102;-80
2022/11/02 06:23:50;;;;;;;9.33;5.00;;;;;;;4.88;100.00;101061.84;4940238;28;20507;-80
2022/11/02 06:26:17;;;;;;;7.27;5.10;;;;;;;4.95;100.00;101056.66;4941223;28;20039;-81
2022/11/02 06:28:44;;;;;;;12.43;5.47;;;;;;;5.10;100.00;101061.16;4973534;28;20062;-81
2022/11/02 06:31:11;;;;;;;6.87;5.07;;;;;;;5.03;100.00;101059.34;4969614;28;20053;-81
2022/11/02 06:33:37;;;;;;;8.30;4.90;;;;;;;5.04;100.00;101069.84;4953859;28;20047;-82
2022/11/02 06:36:04;;;;;;;6.40;4.10;;;;;;;5.19;100.00;101071.69;4955556;28;20042;-82
2022/11/02 06:38:31;;;;;;;8.70;5.13;;;;;;;5.17;100.00;101078.66;4973342;28;20557;-82
2022/11/02 06:41:02;;;;;;;7.93;4.80;;;;;;;5.19;100.00;101071.69;4988568;28;20086;-83
2022/11/02 06:43:29;;;;;;;10.83;4.90;;;;;;;5.32;100.00;101072.69;4953704;28;20051;-84
2022/11/02 06:45:56;;;;;;;8.00;4.50;;;;;;;5.34;100.00;101073.56;4957881;28;20074;-82
2022/11/02 06:48:24;;;;;;;6.40;4.30;;;;;;;5.45;100.00;101068.38;4970475;28;20039;-81
2022/11/02 06:50:57;;;;;;;47.27;27.23;;;;;;;5.47;100.00;101074.53;4951213;28;20097;-82
2022/11/02 06:53:23;;;;;;;38.70;23.73;;;;;;;5.53;100.00;101085.91;4983536;28;20035;-82
2022/11/02 06:55:54;;;;;;;17.77;12.67;;;;;;;5.57;100.00;101094.69;4954689;28;20043;-82
2022/11/02 06:58:22;;;;;;;11.47;6.23;;;;;;;5.64;100.00;101086.88;4957183;28;20045;-82
2022/11/02 07:00:49;;;;;;;9.30;5.13;;;;;;;5.68;100.00;101089.53;4962767;28;20047;-83
2022/11/02 07:03:16;;;;;;;7.50;4.20;;;;;;;5.70;100.00;101080.78;4935977;28;20050;-82
2022/11/02 07:05:48;;;;;;;11.33;4.33;;;;;;;5.72;100.00;101091.28;4936718;28;20039;-83
2022/11/02 07:08:15;;;;;;;7.60;4.73;;;;;;;5.83;100.00;101090.50;4955276;28;20039;-82
2022/11/02 07:10:42;;;;;;;9.17;4.47;;;;;;;5.86;100.00;101093.13;4938771;28;20050;-82
2022/11/02 07:13:08;;;;;;;8.77;4.27;;;;;;;5.97;100.00;101094.94;4949759;28;20050;-82
2022/11/02 07:15:35;;;;;;;6.73;3.50;;;;;;;5.95;100.00;101102.81;4953577;28;20046;-83
2022/11/02 07:18:02;;;;;;;8.50;4.60;;;;;;;6.11;100.00;101095.91;4938483;28;20058;-82
2022/11/02 07:20:32;;;;;;;6.77;3.83;;;;;;;6.14;100.00;101095.94;4965234;28;20045;-82
2022/11/02 07:23:00;;;;;;;6.63;3.80;;;;;;;6.16;100.00;101097.69;4952686;28;20066;-83
2022/11/02 07:25:32;;;;;;;9.70;4.17;;;;;;;6.23;100.00;101089.84;4968197;28;20042;-83
2022/11/02 07:28:00;;;;;;;10.77;4.07;;;;;;;6.27;100.00;101089.84;4951500;28;20047;-82
2022/11/02 07:30:32;;;;;;;12.17;4.17;;;;;;;6.40;100.00;101088.16;4954512;28;20035;-82
2022/11/02 07:32:59;;;;;;;14.17;4.30;;;;;;;6.51;100.00;101080.31;4938715;28;20138;-83
2022/11/02 07:35:26;;;;;;;10.23;5.03;;;;;;;6.65;100.00;101076.00;4937219;28;20066;-80
2022/11/02 07:37:54;;;;;;;9.37;3.73;;;;;;;6.66;100.00;101081.25;4952775;28;20824;-81
2022/11/02 07:40:21;;;;;;;10.53;3.90;;;;;;;6.70;100.00;101087.34;4961476;28;20043;-80
2022/11/02 07:42:48;;;;;;;8.33;3.90;;;;;;;6.74;100.00;101087.38;4938582;28;20484;-81
2022/11/02 07:45:14;;;;;;;8.30;3.40;;;;;;;6.83;100.00;101091.78;4953528;28;20710;-82
2022/11/02 07:47:44;;;;;;;6.93;3.60;;;;;;;6.86;100.00;101094.41;4938361;28;20397;-80
2022/11/02 07:50:13;;;;;;;9.07;3.57;;;;;;;6.93;100.00;101095.28;4950446;28;20419;-82
2022/11/02 07:52:58;;;;;;;9.37;3.93;;;;;;;7.11;100.00;101089.16;4937178;28;20049;-82
2022/11/02 07:55:26;;;;;;;8.83;4.00;;;;;;;7.17;100.00;101091.81;4954773;28;20046;-82
2022/11/02 07:57:57;;;;;;;9.07;4.00;;;;;;;7.39;100.00;101090.91;4935078;28;20413;-79
2022/11/02 08:00:25;;;;;;;9.27;3.87;;;;;;;7.67;100.00;101089.16;4952235;28;20547;-82
2022/11/02 08:03:00;;;;;;;8.43;4.23;;;;;;;7.99;100.00;101089.06;4947619;28;20129;-82
2022/11/02 08:05:28;;;;;;;7.70;3.80;;;;;;;8.16;100.00;101089.91;4951851;28;20125;-83
2022/11/02 08:07:59;;;;;;;9.57;4.63;;;;;;;8.34;100.00;101088.06;4964792;28;20043;-80
2022/11/02 08:10:27;;;;;;;11.87;4.47;;;;;;;8.51;100.00;101077.47;4937475;28;20035;-82
2022/11/02 08:12:54;;;;;;;5.68;2.97;;;;;;;8.54;100.00;101080.97;4938961;28;20050;-82
2022/11/02 08:15:21;;;;;;;8.30;3.35;;;;;;;8.53;100.00;101078.34;4938298;28;20456;-81
2022/11/02 08:18:01;;;;;;;7.00;3.17;;;;;;;8.60;100.00;101070.41;4948518;28;20065;-81
2022/11/02 08:20:29;;;;;;;9.00;4.70;;;;;;;8.63;100.00;101080.03;4971026;28;20431;-82
2022/11/02 08:22:56;;;;;;;7.90;3.23;;;;;;;8.72;100.00;101080.84;4968913;28;20101;-81
2022/11/02 08:25:27;;;;;;;6.77;3.90;;;;;;;8.84;100.00;101093.09;4953320;28;20094;-82
2022/11/02 08:27:58;;;;;;;11.43;2.63;;;;;;;8.87;100.00;101079.88;4954798;28;20043;-82
2022/11/02 08:30:26;;;;;;;8.05;2.80;;;;;;;8.94;100.00;101075.44;4970108;28;20042;-83
2022/11/02 08:32:53;;;;;;;6.85;4.00;;;;;;;8.99;100.00;101074.50;4955447;28;20042;-83
2022/11/02 08:35:23;;;;;;;6.40;2.50;;;;;;;9.02;100.00;101077.16;4936829;29;20040;-82
2022/11/02 08:37:56;;;;;;;8.98;2.70;;;;;;;9.00;100.00;101076.28;4920368;28;20071;-83
2022/11/02 08:40:23;;;;;;;8.65;3.63;;;;;;;9.03;100.00;101080.66;4955009;28;20049;-83
2022/11/02 08:42:55;;;;;;;6.15;2.90;;;;;;;9.11;100.00;101070.06;4937120;28;20519;-82
2022/11/02 08:45:21;;;;;;;8.63;3.35;;;;;;;9.10;100.00;101081.50;4967698;28;20042;-81
2022/11/02 08:47:48;;;;;;;8.57;2.95;;;;;;;9.07;100.00;101073.59;4954396;28;20070;-83
2022/11/02 08:50:15;;;;;;;8.05;3.17;;;;;;;9.09;100.00;101083.25;4934933;28;20087;-83
2022/11/02 08:52:41;;;;;;;6.95;2.60;;;;;;;9.22;100.00;101081.38;4951978;28;20039;-83
2022/11/02 08:55:08;;;;;;;6.70;2.95;;;;;;;9.30;100.00;101074.28;4935864;29;20047;-83
2022/11/02 08:57:48;;;;;;;9.55;3.47;;;;;;;9.36;100.00;101074.22;4937784;28;20051;-82
2022/11/02 09:00:15;;;;;;;7.60;2.78;;;;;;;9.42;100.00;101079.47;4952724;28;20448;-83
2022/11/02 09:02:42;;;;;;;5.50;2.65;;;;;;;9.35;100.00;101069.84;4945779;28;20047;-83
2022/11/02 09:05:10;;;;;;;7.82;2.88;;;;;;;9.39;100.00;101082.09;4938030;28;20038;-82
2022/11/02 09:07:37;;;;;;;6.63;2.70;;;;;;;9.37;100.00;101080.38;4953339;28;20039;-81
2022/11/02 09:10:04;;;;;;;8.23;2.50;;;;;;;9.36;100.00;101079.50;4936540;28;20073;-80
2022/11/02 09:12:31;;;;;;;6.18;2.60;;;;;;;9.36;100.00;101083.91;4969637;28;20504;-82
2022/11/02 09:14:57;;;;;;;6.97;2.90;;;;;;;9.39;100.00;101084.75;4954312;28;20043;-82
2022/11/02 09:17:24;;;;;;;5.78;2.63;;;;;;;9.49;100.00;101074.97;4936990;28;20085;-82
2022/11/02 09:19:51;;;;;;;9.60;2.78;;;;;;;9.80;100.00;101078.19;4938008;28;20070;-84
2022/11/02 09:22:17;;;;;;;4.97;2.20;;;;;;;9.78;100.00;101066.78;4942626;28;20038;-82
2022/11/02 09:24:44;;;;;;;8.32;2.85;;;;;;;10.10;100.00;101069.94;4953883;28;20038;-84
2022/11/02 09:27:11;;;;;;;10.70;3.45;;;;;;;10.32;100.00;101061.78;4952277;28;20050;-83
2022/11/02 09:29:37;;;;;;;7.05;3.00;;;;;;;10.47;100.00;101069.50;4985753;28;20039;-84
2022/11/02 09:32:04;;;;;;;8.35;2.67;;;;;;;10.60;100.00;101067.56;4934974;28;20063;-82
2022/11/02 09:34:31;;;;;;;6.60;2.78;;;;;;;10.65;100.00;101073.66;4964718;28;20043;-83
2022/11/02 09:36:57;;;;;;;5.78;2.47;;;;;;;10.85;100.00;101057.53;4943060;28;20066;-84
2022/11/02 09:39:24;;;;;;;7.55;2.70;;;;;;;11.10;100.00;101071.19;4938862;28;20062;-82
2022/11/02 09:42:03;;;;;;;7.93;2.63;;;;;;;11.11;100.00;101068.56;4953652;28;20042;-85
2022/11/02 09:44:47;;;;;;;6.15;2.38;;;;;;;11.25;100.00;101076.25;4954629;28;20051;-84
2022/11/02 09:47:15;;;;;;;4.85;2.85;;;;;;;11.45;100.00;101068.00;4921624;28;20040;-81
2022/11/02 09:50:03;;;;;;;7.22;2.10;;;;;;;11.66;100.00;101072.00;4957072;28;20082;-82
2022/11/02 09:52:36;;;;;;;10.55;2.72;;;;;;;11.75;100.00;101071.84;4970400;28;20051;-83
2022/11/02 09:55:13;;;;;;;6.38;2.35;;;;;;;11.91;100.00;101078.63;4938647;28;20649;-85
2022/11/02 09:57:41;;;;;;;7.70;2.33;;;;;;;12.02;100.00;101076.66;4969696;28;20653;-83
2022/11/02 10:00:12;;;;;;;5.72;2.10;;;;;;;12.26;100.00;101066.44;4936550;28;20042;-83
2022/11/02 10:02:42;;;;;;;7.10;2.22;;;;;;;12.42;100.00;101061.69;4937656;28;20083;-82
2022/11/02 10:05:53;;;;;;;8.32;2.58;;;;;;;12.52;100.00;101071.19;4967928;28;20070;-83
2022/11/02 10:08:37;;;;;;;6.80;3.05;;;;;;;12.58;100.00;101065.75;5106862;22;20067;-84
2022/11/02 10:11:32;;;;;;;5.25;2.33;;;;;;;12.77;100.00;101075.03;4975535;28;20042;-86
2022/11/02 10:14:13;;;;;;;8.93;2.60;;;;;;;13.00;100.00;101074.50;4990392;28;20030;-84
2022/11/02 10:17:09;;;;;;;7.68;2.30;;;;;;;13.17;100.00;101071.44;4958036;28;20555;-87
2022/11/02 10:19:41;;;;;;;8.30;2.40;;;;;;;13.32;100.00;101072.88;4961237;28;20062;-83
2022/11/02 10:22:11;;;;;;;6.50;2.17;;;;;;;13.47;100.00;101073.38;4975907;28;20030;-85
2022/11/02 10:24:48;;;;;;;4.55;1.80;;;;;;;13.54;100.00;101074.09;4986463;28;20065;-86
2022/11/02 10:27:22;;;;;;;6.43;2.10;;;;;;;13.62;100.00;101071.19;4966616;28;20039;-85
2022/11/02 10:29:58;;;;;;;7.40;2.47;;;;;;;13.76;100.00;101067.28;4979035;28;20045;-84
2022/11/02 10:32:24;;;;;;;14.02;2.45;;;;;;;13.85;98.83;101065.28;4963188;28;20097;-83
2022/11/02 10:34:51;;;;;;;4.38;1.73;;;;;;;13.89;97.24;101072.25;4963146;28;20039;-85
2022/11/02 10:37:53;;;;;;;4.65;2.05;;;;;;;13.98;95.92;101064.03;4982843;28;20042;-83
2022/11/02 10:40:30;;;;;;;4.57;1.70;;;;;;;14.11;93.73;101064.53;4998183;28;20034;-84
2022/11/02 10:43:07;;;;;;;6.55;2.20;;;;;;;14.13;91.13;101071.59;4981160;28;20039;-84
2022/11/02 10:46:08;;;;;;;6.15;2.08;;;;;;;14.15;91.97;101068.88;4975098;28;20104;-85
2022/11/02 10:48:49;;;;;;;8.98;3.13;;;;;;;14.25;91.12;101065.91;4980014;28;20043;-84
2022/11/02 10:51:16;;;;;;;5.05;2.25;;;;;;;14.12;89.00;101074.25;4977081;28;20462;-85
2022/11/02 10:53:45;;;;;;;5.25;2.10;;;;;;;14.27;90.04;101074.69;4978856;28;20092;-83
2022/11/02 10:56:18;;;;;;;8.05;2.78;;;;;;;14.41;87.61;101070.78;4957695;28;20652;-84
2022/11/02 10:58:51;;;;;;;8.93;2.60;;;;;;;14.48;88.64;101069.72;4987832;28;20492;-85
2022/11/02 11:01:18;;;;;;;6.82;1.80;;;;;;;14.45;83.70;101075.97;4961114;28;20482;-82
2022/11/02 11:03:55;;;;;;;8.85;2.40;;;;;;;14.49;83.60;101072.31;4980832;28;20470;-84
2022/11/02 11:06:23;;;;;;;8.20;2.90;;;;;;;14.57;82.68;101086.25;4982763;28;20053;-84
2022/11/02 11:08:52;;;;;;;7.45;2.22;;;;;;;14.59;83.14;101087.06;4960642;28;20213;-86
2022/11/02 11:11:24;;;;;;;8.75;2.63;;;;;;;14.68;84.28;101088.56;4945953;28;20067;-86
2022/11/02 11:13:57;;;;;;;5.28;2.78;;;;;;;14.50;82.21;101078.50;4963488;28;20053;-85
2022/11/02 11:16:46;;;;;;;4.93;1.98;;;;;;;14.42;81.76;101083.13;4980982;28;20045;-85
2022/11/02 11:19:26;;;;;;;4.68;2.05;;;;;;;14.46;82.60;101080.41;4988220;28;20056;-85
2022/11/02 11:22:28;;;;;;;7.80;2.10;;;;;;;14.55;82.28;101072.13;4969107;28;20045;-86
2022/11/02 11:25:21;;;;;;;8.23;2.60;;;;;;;14.70;83.62;101083.19;4974933;28;20039;-85
2022/11/02 11:27:57;;;;;;;6.72;2.55;;;;;;;14.52;78.85;101088.16;4979934;28;20281;-84
2022/11/02 11:30:28;;;;;;;7.57;2.63;;;;;;;14.54;77.51;101094.31;4987615;28;20511;-85
2022/11/02 11:33:18;;;;;;;12.65;2.83;;;;;;;14.52;80.88;101089.94;4987527;28;20092;-87
2022/11/02 11:35:49;;;;;;;5.72;2.22;;;;;;;14.56;78.70;101092.50;4962195;28;20042;-85
2022/11/02 11:38:18;;;;;;;4.88;1.83;;;;;;;14.54;80.49;101096.09;4976174;28;20101;-86
2022/11/02 11:40:47;;;;;;;5.88;2.42;;;;;;;14.37;79.78;101088.56;4976396;28;20691;-85
2022/11/02 11:43:16;;;;;;;9.20;2.88;;;;;;;14.38;81.52;101087.69;4959269;28;20450;-84
2022/11/02 11:46:00;;;;;;;5.22;2.13;;;;;;;14.37;82.34;101097.41;4979204;28;20388;-84
2022/11/02 11:48:38;;;;;;;5.00;2.63;;;;;;;14.50;79.11;101084.69;4974781;28;20038;-85
2022/11/02 11:51:22;;;;;;;4.15;2.10;;;;;;;14.48;80.78;101086.53;4990195;28;20034;-83
2022/11/02 11:54:13;;;;;;;9.65;3.10;;;;;;;14.46;81.08;101084.81;4989558;28;20041;-84
2022/11/02 11:56:40;;;;;;;8.93;2.55;;;;;;;14.44;80.62;101079.50;4971949;28;20044;-86